Time;durP1;ratioP1;P1;durP2;ratioP2;P2;SDS_P1;SDS_P2;PMS_P1;PMS_P2;Temp;Humidity;BMP_temperature;BMP_pressure;BME280_temperature;BME280_humidity;BME280_pressure;Samples;Min_cycle;Max_cycle;Signal;HPM_P1;HPM_P2
2023/12/26 00:00:29;;;;;;;2.42;0.80;;;;;;;10.29;73.90;100277.84;4145865;28;20042;-68
2023/12/26 00:02:32;;;;;;;2.00;0.90;;;;;;;10.38;73.72;100279.72;4146675;28;20038;-68
2023/12/26 00:04:35;;;;;;;0.77;0.52;;;;;;;10.35;73.58;100276.19;4145767;28;20042;-68
2023/12/26 00:06:38;;;;;;;3.50;0.68;;;;;;;10.29;73.30;100269.16;4145829;28;20037;-68
2023/12/26 00:08:42;;;;;;;1.05;0.82;;;;;;;10.26;74.02;100271.72;4146630;28;20042;-68
2023/12/26 00:10:45;;;;;;;1.77;0.70;;;;;;;10.23;74.14;100277.75;4135903;28;20047;-68
2023/12/26 00:12:48;;;;;;;0.68;0.57;;;;;;;10.28;73.98;100281.28;4144433;28;20073;-68
2023/12/26 00:14:51;;;;;;;1.40;0.60;;;;;;;10.30;73.96;100276.09;4140835;28;20034;-69
2023/12/26 00:16:53;;;;;;;1.70;0.68;;;;;;;10.38;73.29;100277.13;4149156;28;20100;-69
2023/12/26 00:18:57;;;;;;;0.70;0.70;;;;;;;10.35;73.35;100279.66;4142440;28;20513;-68
2023/12/26 00:21:00;;;;;;;1.15;0.77;;;;;;;10.31;73.37;100281.31;4147505;28;20503;-68
2023/12/26 00:23:04;;;;;;;0.90;0.63;;;;;;;10.34;73.48;100285.72;4144933;28;20042;-69
2023/12/26 00:25:08;;;;;;;0.60;0.60;;;;;;;10.39;73.71;100280.56;4145144;28;20120;-68
2023/12/26 00:27:11;;;;;;;;;;;;;;;10.33;73.86;100280.47;4134490;28;20038;-68
2023/12/26 00:29:14;;;;;;;1.73;0.60;;;;;;;10.35;73.49;100279.66;4145607;28;20310;-69
2023/12/26 00:31:17;;;;;;;1.13;1.02;;;;;;;10.32;73.66;100282.19;4144968;28;20038;-68
2023/12/26 00:33:21;;;;;;;1.75;0.70;;;;;;;10.30;73.38;100276.09;4145748;28;20523;-68
2023/12/26 00:35:24;;;;;;;0.40;0.40;;;;;;;10.39;72.97;100281.44;4147192;28;20136;-68
2023/12/26 00:37:26;;;;;;;3.70;0.90;;;;;;;10.40;73.13;100275.38;4148059;28;20042;-68
2023/12/26 00:39:29;;;;;;;1.60;0.80;;;;;;;10.42;73.19;100271.06;4140358;28;20105;-68
2023/12/26 00:41:34;;;;;;;1.17;0.55;;;;;;;10.34;72.91;100277.91;4147418;28;20052;-68
2023/12/26 00:43:37;;;;;;;3.22;0.68;;;;;;;10.37;73.48;100277.94;4145616;28;20034;-68
2023/12/26 00:45:40;;;;;;;0.95;0.60;;;;;;;10.29;73.26;100275.25;4145770;28;20045;-68
2023/12/26 00:47:42;;;;;;;1.08;0.70;;;;;;;10.32;72.95;100269.19;4148052;28;20034;-68
2023/12/26 00:49:45;;;;;;;0.90;0.60;;;;;;;10.38;73.57;100274.50;4146824;28;20038;-68
2023/12/26 00:51:48;;;;;;;1.40;0.40;;;;;;;10.35;73.29;100269.25;4152414;28;20070;-68
2023/12/26 00:53:51;;;;;;;0.50;0.45;;;;;;;10.28;72.85;100267.44;4147210;28;20037;-68
2023/12/26 00:55:54;;;;;;;1.83;0.70;;;;;;;10.27;73.21;100268.28;4147522;28;20057;-68
2023/12/26 00:57:59;;;;;;;0.90;0.60;;;;;;;10.19;73.53;100267.28;4147725;28;20038;-68
2023/12/26 01:00:03;;;;;;;0.40;0.40;;;;;;;10.18;73.11;100282.03;4154124;28;20037;-68
2023/12/26 01:02:06;;;;;;;;;;;;;;;10.05;72.80;100273.19;4145915;28;20045;-68
2023/12/26 01:04:09;;;;;;;4.60;0.70;;;;;;;10.08;72.79;100280.16;4147042;28;20529;-68
2023/12/26 01:06:14;;;;;;;5.28;1.08;;;;;;;10.10;73.12;100291.44;4145731;28;20060;-68
2023/12/26 01:08:18;;;;;;;3.10;0.70;;;;;;;10.06;72.67;100292.22;4140881;28;20054;-68
2023/12/26 01:10:21;;;;;;;0.43;0.43;;;;;;;10.01;72.26;100284.38;4148352;28;20503;-68
2023/12/26 01:12:24;;;;;;;2.67;0.80;;;;;;;10.04;73.21;100284.41;4145474;28;20100;-68
2023/12/26 01:14:28;;;;;;;3.15;0.70;;;;;;;10.04;72.77;100278.38;4145567;28;20069;-68
2023/12/26 01:16:32;;;;;;;3.70;0.68;;;;;;;10.04;72.74;100287.00;4147374;28;20451;-68
2023/12/26 01:18:35;;;;;;;1.90;0.40;;;;;;;10.00;72.63;100289.56;4148528;28;20050;-68
2023/12/26 01:20:38;;;;;;;1.60;0.75;;;;;;;9.98;73.12;100289.53;4147662;28;20416;-68
2023/12/26 01:22:41;;;;;;;0.75;0.50;;;;;;;10.02;72.24;100286.13;4151012;28;20455;-69
2023/12/26 01:24:44;;;;;;;0.55;0.50;;;;;;;10.02;72.55;100286.13;4148529;28;20069;-69
2023/12/26 01:26:48;;;;;;;1.42;0.52;;;;;;;9.97;72.91;100287.78;4136649;28;20034;-69
2023/12/26 01:28:51;;;;;;;1.75;0.70;;;;;;;9.96;72.44;100284.31;4134913;28;20042;-68
2023/12/26 01:30:56;;;;;;;4.18;0.80;;;;;;;9.96;72.81;100291.25;4145469;28;20447;-69
2023/12/26 01:32:59;;;;;;;0.98;0.70;;;;;;;9.97;72.53;100287.78;4140422;28;20039;-69
2023/12/26 01:35:02;;;;;;;0.98;0.88;;;;;;;10.03;72.18;100289.59;4147090;28;20500;-68
2023/12/26 01:37:05;;;;;;;2.40;1.10;;;;;;;9.99;72.11;100299.09;4142051;28;20112;-69
2023/12/26 01:39:10;;;;;;;9.77;1.30;;;;;;;10.02;71.98;100295.66;4139927;28;20125;-68
2023/12/26 01:41:13;;;;;;;3.85;0.95;;;;;;;10.02;72.01;100296.53;4154583;28;20816;-68
2023/12/26 01:43:17;;;;;;;2.30;1.00;;;;;;;9.98;72.47;100301.66;4138535;28;20030;-69
2023/12/26 01:45:19;;;;;;;2.17;0.80;;;;;;;9.95;72.25;100300.75;4138241;28;20077;-68
2023/12/26 01:47:25;;;;;;;1.98;0.73;;;;;;;9.95;72.92;100299.88;4136934;28;20189;-68
2023/12/26 01:49:31;;;;;;;2.17;0.70;;;;;;;9.98;71.64;100294.72;4146068;28;20050;-68
2023/12/26 01:51:35;;;;;;;2.47;0.80;;;;;;;9.99;72.19;100306.88;4132874;28;20486;-68
2023/12/26 01:53:39;;;;;;;1.30;0.68;;;;;;;9.94;72.25;100295.53;4141214;28;20038;-69
2023/12/26 01:55:43;;;;;;;2.00;1.08;;;;;;;9.90;72.32;100311.91;4141337;28;20046;-68
2023/12/26 01:57:46;;;;;;;4.47;0.90;;;;;;;9.93;71.87;100319.78;4143825;28;20389;-68
2023/12/26 01:59:49;;;;;;;3.17;0.90;;;;;;;10.01;72.32;100319.88;4135709;28;20034;-69
2023/12/26 02:01:53;;;;;;;1.30;0.50;;;;;;;10.05;71.62;100334.66;4146383;28;20033;-69
2023/12/26 02:03:59;;;;;;;2.20;0.65;;;;;;;9.98;71.93;100331.09;4131326;28;20034;-67
2023/12/26 02:06:03;;;;;;;4.60;1.00;;;;;;;10.02;71.29;100351.06;4144449;28;20046;-68
2023/12/26 02:08:08;;;;;;;2.95;1.20;;;;;;;10.02;70.99;100343.28;4140405;28;20046;-67
2023/12/26 02:10:20;;;;;;;2.67;1.00;;;;;;;10.11;70.39;100363.31;4138393;28;20094;-68
2023/12/26 02:12:24;;;;;;;5.03;1.67;;;;;;;10.10;70.94;100356.34;4144448;28;20053;-68
2023/12/26 02:14:27;;;;;;;2.85;0.80;;;;;;;10.18;70.31;100364.25;4146141;28;20041;-68
2023/12/26 02:16:31;;;;;;;4.75;2.25;;;;;;;10.27;70.22;100351.41;4137078;28;20599;-68
2023/12/26 02:18:35;;;;;;;5.40;1.48;;;;;;;10.22;70.12;100353.94;4145966;28;20046;-68
2023/12/26 02:20:39;;;;;;;6.30;1.43;;;;;;;10.19;69.02;100351.31;4144883;28;20037;-68
2023/12/26 02:22:45;;;;;;;6.60;1.75;;;;;;;10.36;68.90;100353.28;4147669;28;20916;-68
2023/12/26 02:24:50;;;;;;;5.80;1.80;;;;;;;10.36;68.50;100364.56;4146857;28;20132;-68
2023/12/26 02:26:55;;;;;;;6.38;1.70;;;;;;;10.35;68.45;100359.34;4141514;28;20567;-68
2023/12/26 02:29:00;;;;;;;8.63;2.35;;;;;;;10.41;67.84;100367.22;4140019;28;20093;-68
2023/12/26 02:31:03;;;;;;;;;;;;;;;10.38;67.40;100368.06;4146714;28;20471;-68
2023/12/26 02:33:07;;;;;;;5.93;1.40;;;;;;;10.37;67.65;100363.72;4146377;28;19987;-68
2023/12/26 02:35:10;;;;;;;5.30;1.40;;;;;;;10.33;67.02;100369.69;4144926;28;20102;-68
2023/12/26 02:37:13;;;;;;;8.73;2.20;;;;;;;10.31;67.28;100374.00;4130815;28;20317;-66
2023/12/26 02:39:16;;;;;;;7.10;2.13;;;;;;;10.36;67.07;100374.94;4138036;28;20042;-68
2023/12/26 02:41:20;;;;;;;7.47;1.75;;;;;;;10.38;66.57;100377.56;4146514;28;20137;-68
2023/12/26 02:43:25;;;;;;;8.95;2.03;;;;;;;10.35;66.53;100373.19;4139108;28;20038;-67
2023/12/26 02:45:27;;;;;;;12.35;2.70;;;;;;;10.32;67.27;100375.72;4146031;28;20108;-68
2023/12/26 02:47:30;;;;;;;8.35;2.13;;;;;;;10.35;66.87;100373.19;4142872;28;20107;-67
2023/12/26 02:49:34;;;;;;;6.93;1.85;;;;;;;10.38;66.84;100375.84;4141695;28;20052;-67
2023/12/26 02:51:37;;;;;;;7.43;1.70;;;;;;;10.38;67.17;100370.66;4139249;28;20038;-68
2023/12/26 02:53:40;;;;;;;7.32;1.80;;;;;;;10.39;66.10;100368.94;4144429;28;20042;-68
2023/12/26 02:55:42;;;;;;;10.13;2.40;;;;;;;10.39;67.17;100374.13;4143043;28;20586;-67
2023/12/26 02:57:46;;;;;;;12.27;1.95;;;;;;;10.40;66.18;100371.53;4146410;28;20029;-68
2023/12/26 02:59:49;;;;;;;8.02;2.05;;;;;;;10.40;66.98;100366.34;4141330;28;20036;-68
2023/12/26 03:01:52;;;;;;;8.35;2.42;;;;;;;10.49;66.22;100365.59;4144637;28;20046;-68
2023/12/26 03:03:54;;;;;;;11.95;2.72;;;;;;;10.56;66.49;100358.75;4142080;28;20404;-68
2023/12/26 03:05:58;;;;;;;8.90;2.10;;;;;;;10.49;66.31;100381.19;4138036;28;20045;-68
2023/12/26 03:08:00;;;;;;;5.47;1.63;;;;;;;10.41;66.86;100372.41;4141107;28;20065;-68
2023/12/26 03:10:07;;;;;;;6.45;1.98;;;;;;;10.40;66.80;100387.13;4135927;28;20042;-68
2023/12/26 03:12:11;;;;;;;7.47;2.88;;;;;;;10.43;66.34;100386.31;4139764;28;20057;-68
2023/12/26 03:14:16;;;;;;;9.00;2.40;;;;;;;10.43;66.25;100383.72;4160408;28;20038;-68
2023/12/26 03:16:20;;;;;;;8.52;2.13;;;;;;;10.45;66.37;100376.78;4139729;28;20099;-68
2023/12/26 03:18:23;;;;;;;;;;;;;;;10.36;66.45;100379.28;4145531;28;20069;-68
2023/12/26 03:20:27;;;;;;;10.68;2.15;;;;;;;10.35;66.62;100373.19;4144994;28;19921;-68
2023/12/26 03:22:29;;;;;;;6.95;1.80;;;;;;;10.38;66.85;100368.06;4145566;28;20037;-68
2023/12/26 03:24:32;;;;;;;8.95;2.10;;;;;;;10.43;66.69;100363.78;4152620;28;20072;-68
2023/12/26 03:26:35;;;;;;;5.80;1.88;;;;;;;10.41;66.56;100375.91;4136385;28;20049;-68
2023/12/26 03:28:38;;;;;;;11.18;1.63;;;;;;;10.47;66.73;100375.09;4135331;28;20046;-68
2023/12/26 03:30:43;;;;;;;6.72;1.55;;;;;;;10.44;66.59;100373.34;4129064;28;20504;-68
2023/12/26 03:32:46;;;;;;;7.35;2.90;;;;;;;10.48;66.29;100369.94;4146091;28;20041;-68
2023/12/26 03:34:48;;;;;;;8.85;2.20;;;;;;;10.49;66.73;100365.59;4144134;28;20041;-68
2023/12/26 03:36:53;;;;;;;7.72;2.40;;;;;;;10.58;66.34;100378.69;4135468;28;20037;-68
2023/12/26 03:38:56;;;;;;;7.40;2.80;;;;;;;10.45;66.15;100363.81;4145777;28;20068;-68
2023/12/26 03:41:00;;;;;;;8.45;2.05;;;;;;;10.53;66.15;100361.28;4146626;28;20064;-68
2023/12/26 03:43:03;;;;;;;11.13;2.20;;;;;;;10.48;65.59;100356.94;4145553;28;20129;-69
2023/12/26 03:45:07;;;;;;;11.40;2.17;;;;;;;10.46;66.33;100365.56;4142430;28;20038;-68
2023/12/26 03:47:11;;;;;;;9.87;2.13;;;;;;;10.46;66.35;100361.22;4144858;28;20038;-68
2023/12/26 03:49:14;;;;;;;11.15;2.17;;;;;;;10.41;66.41;100362.91;4142777;28;20034;-68
2023/12/26 03:51:17;;;;;;;5.75;2.00;;;;;;;10.51;66.03;100357.81;4145634;28;20042;-68
2023/12/26 03:53:21;;;;;;;12.77;2.28;;;;;;;10.48;65.36;100356.94;4146085;28;20096;-68
2023/12/26 03:55:24;;;;;;;7.50;2.10;;;;;;;10.40;65.92;100342.97;4137443;28;20145;-68
2023/12/26 03:57:27;;;;;;;7.35;1.73;;;;;;;10.37;66.18;100339.47;4138601;28;20041;-68
2023/12/26 03:59:29;;;;;;;7.90;2.13;;;;;;;10.42;65.84;100337.78;4141302;28;20029;-68
2023/12/26 04:01:32;;;;;;;6.53;1.73;;;;;;;10.34;65.74;100329.88;4161576;28;20045;-68
2023/12/26 04:03:37;;;;;;;7.68;1.98;;;;;;;10.34;66.70;100322.09;4144352;28;20099;-68
2023/12/26 04:05:39;;;;;;;7.63;1.80;;;;;;;10.26;66.25;100321.94;4143155;28;20095;-68
2023/12/26 04:07:42;;;;;;;12.93;2.13;;;;;;;10.24;66.00;100323.66;4143540;28;20490;-67
2023/12/26 04:09:46;;;;;;;4.90;1.52;;;;;;;10.16;66.67;100319.22;4137300;28;20034;-68
2023/12/26 04:11:48;;;;;;;6.95;2.20;;;;;;;10.18;66.38;100307.09;4143927;28;20516;-68
2023/12/26 04:13:51;;;;;;;7.95;2.53;;;;;;;10.16;66.71;100312.28;4133097;28;20578;-68
2023/12/26 04:15:53;;;;;;;8.80;2.05;;;;;;;10.13;67.20;100309.63;4130059;28;20096;-68
2023/12/26 04:17:58;;;;;;;9.50;2.10;;;;;;;10.07;66.57;100300.03;4144141;28;20042;-68
2023/12/26 04:20:04;;;;;;;4.30;1.42;;;;;;;10.08;67.17;100307.00;4163704;28;20041;-68
2023/12/26 04:22:12;;;;;;;11.27;2.05;;;;;;;10.02;67.15;100309.50;4146632;28;20049;-68
2023/12/26 04:24:14;;;;;;;7.60;2.00;;;;;;;10.01;67.56;100309.50;4149360;28;20072;-68
2023/12/26 04:26:17;;;;;;;5.18;1.33;;;;;;;9.99;66.91;100314.66;4127716;28;20088;-68
2023/12/26 04:28:20;;;;;;;7.68;1.95;;;;;;;9.96;67.50;100319.81;4148103;28;20124;-68
2023/12/26 04:30:23;;;;;;;9.07;2.17;;;;;;;9.93;67.95;100318.03;4143531;28;20184;-68
2023/12/26 04:32:26;;;;;;;6.78;2.22;;;;;;;9.98;67.27;100320.69;4140164;28;20070;-68
2023/12/26 04:34:29;;;;;;;7.22;1.83;;;;;;;9.93;67.98;100318.03;4146390;28;20041;-68
2023/12/26 04:36:35;;;;;;;8.25;2.20;;;;;;;10.00;67.42;100316.38;4131710;28;20048;-68
2023/12/26 04:38:38;;;;;;;15.15;2.88;;;;;;;10.07;67.82;100315.63;4147568;28;20034;-69
2023/12/26 04:40:42;;;;;;;7.50;2.65;;;;;;;10.12;66.71;100313.97;4140080;28;20045;-69
2023/12/26 04:42:45;;;;;;;12.02;3.10;;;;;;;10.10;66.88;100315.69;4137824;28;20121;-69
2023/12/26 04:44:48;;;;;;;8.95;1.92;;;;;;;10.01;67.75;100318.13;4145699;28;20038;-69
2023/12/26 04:46:52;;;;;;;5.80;2.30;;;;;;;9.99;68.25;100311.16;4148636;28;20099;-69
2023/12/26 04:48:55;;;;;;;8.77;2.40;;;;;;;10.00;67.70;100293.00;4140034;28;20058;-69
2023/12/26 04:50:58;;;;;;;8.07;2.15;;;;;;;9.97;67.94;100298.16;4145827;28;20435;-69
2023/12/26 04:53:04;;;;;;;10.80;2.55;;;;;;;10.00;67.22;100306.00;4136335;28;20337;-69
2023/12/26 04:55:09;;;;;;;12.15;2.85;;;;;;;10.01;66.84;100322.47;4124083;28;20133;-69
2023/12/26 04:57:13;;;;;;;11.65;2.55;;;;;;;9.98;67.17;100315.50;4132311;28;20046;-69
2023/12/26 04:59:16;;;;;;;6.50;1.88;;;;;;;9.98;67.18;100320.69;4146066;28;20046;-69
2023/12/26 05:01:21;;;;;;;6.07;1.88;;;;;;;9.96;67.13;100312.88;4146447;28;20133;-69
2023/12/26 05:03:24;;;;;;;13.48;2.80;;;;;;;9.97;67.19;100334.53;4136723;28;20527;-69
2023/12/26 05:05:28;;;;;;;9.70;1.97;;;;;;;9.95;67.36;100337.09;4144010;28;20044;-69
2023/12/26 05:07:31;;;;;;;8.55;2.63;;;;;;;9.95;66.88;100344.03;4139846;28;20490;-69
2023/12/26 05:09:35;;;;;;;6.20;2.15;;;;;;;10.02;66.82;100351.06;4141347;28;20522;-67
2023/12/26 05:11:38;;;;;;;10.63;2.50;;;;;;;10.07;67.03;100351.97;4148456;28;20088;-68
2023/12/26 05:13:40;;;;;;;14.13;2.88;;;;;;;10.07;66.91;100349.38;4156566;28;20052;-69
2023/12/26 05:15:44;;;;;;;10.32;2.67;;;;;;;10.06;66.59;100347.66;4146493;28;20491;-68
2023/12/26 05:17:47;;;;;;;7.63;2.15;;;;;;;10.07;66.98;100371.91;4146801;28;20128;-68
2023/12/26 05:19:50;;;;;;;16.73;2.88;;;;;;;10.08;66.47;100369.31;4140651;28;20038;-68
2023/12/26 05:21:53;;;;;;;8.20;2.08;;;;;;;10.13;66.97;100369.38;4137240;28;20045;-68
2023/12/26 05:23:58;;;;;;;11.90;2.47;;;;;;;10.21;66.31;100364.31;4147594;28;20337;-68
2023/12/26 05:26:03;;;;;;;10.18;2.40;;;;;;;10.21;66.71;100378.19;4148948;28;20076;-68
2023/12/26 05:28:15;;;;;;;10.70;2.50;;;;;;;10.17;66.56;100367.72;4140214;28;20043;-67
2023/12/26 05:30:19;;;;;;;7.82;1.85;;;;;;;10.22;65.96;100371.25;4144772;28;20726;-68
2023/12/26 05:32:22;;;;;;;7.53;1.92;;;;;;;10.24;66.40;100370.41;4124810;28;20039;-68
2023/12/26 05:34:25;;;;;;;11.40;3.08;;;;;;;10.26;66.62;100373.03;4138263;28;20177;-68
2023/12/26 05:36:28;;;;;;;9.95;2.22;;;;;;;10.33;65.68;100380.06;4155398;28;20033;-69
2023/12/26 05:38:31;;;;;;;10.57;2.40;;;;;;;10.35;66.40;100385.31;4140342;28;20103;-69
2023/12/26 05:40:35;;;;;;;10.40;2.42;;;;;;;10.40;65.61;100379.34;4145017;28;20065;-68
2023/12/26 05:42:39;;;;;;;10.65;2.22;;;;;;;10.52;65.00;100391.63;4145257;28;20589;-68
2023/12/26 05:44:42;;;;;;;10.65;2.53;;;;;;;10.35;65.06;100393.13;4141323;28;20077;-69
2023/12/26 05:46:45;;;;;;;6.85;2.03;;;;;;;10.36;66.26;100390.53;4145090;28;20112;-69
2023/12/26 05:48:48;;;;;;;8.70;2.47;;;;;;;10.29;65.78;100401.66;4146196;28;20420;-69
2023/12/26 05:50:51;;;;;;;6.53;1.67;;;;;;;10.30;66.45;100398.22;4135618;28;20100;-68
2023/12/26 05:52:54;;;;;;;8.88;1.85;;;;;;;10.31;66.21;100407.78;4142851;28;20586;-69
2023/12/26 05:54:57;;;;;;;5.18;1.67;;;;;;;10.36;66.11;100411.31;4126625;28;20521;-68
2023/12/26 05:57:00;;;;;;;7.45;1.80;;;;;;;10.41;66.35;100408.78;4144994;28;20042;-68
2023/12/26 05:59:05;;;;;;;10.23;2.55;;;;;;;10.43;65.13;100413.16;4141223;28;20049;-68
2023/12/26 06:01:10;;;;;;;13.05;2.20;;;;;;;10.39;65.84;100419.16;4144557;28;20459;-67
2023/12/26 06:03:14;;;;;;;9.88;2.17;;;;;;;10.36;65.32;100420.84;4140886;28;20117;-67
2023/12/26 06:05:16;;;;;;;10.77;2.22;;;;;;;10.46;65.69;100418.41;4138126;28;20041;-68
2023/12/26 06:07:19;;;;;;;8.25;1.90;;;;;;;10.59;65.11;100424.66;4140487;28;20042;-67
2023/12/26 06:09:21;;;;;;;9.90;2.72;;;;;;;10.43;65.13;100422.69;4139184;28;20125;-67
2023/12/26 06:11:25;;;;;;;7.72;1.98;;;;;;;10.42;65.16;100423.53;4123476;28;20039;-67
2023/12/26 06:13:28;;;;;;;9.13;2.33;;;;;;;10.47;65.27;100422.75;4162573;28;20091;-67
2023/12/26 06:15:32;;;;;;;7.95;1.92;;;;;;;10.43;65.38;100427.91;4141643;28;20077;-67
2023/12/26 06:17:36;;;;;;;7.50;2.63;;;;;;;10.42;65.86;100432.19;4146682;28;20072;-67
2023/12/26 06:19:41;;;;;;;9.55;2.40;;;;;;;10.52;65.23;100424.56;4140039;28;20123;-68
2023/12/26 06:21:45;;;;;;;16.80;3.63;;;;;;;10.41;65.06;100432.19;4145824;28;20045;-68
2023/12/26 06:23:48;;;;;;;11.00;2.35;;;;;;;10.45;64.81;100434.88;4145790;28;20041;-67
2023/12/26 06:25:50;;;;;;;14.63;2.90;;;;;;;10.42;65.35;100437.41;4146277;28;20029;-68
2023/12/26 06:27:53;;;;;;;10.27;2.95;;;;;;;10.39;64.96;100437.34;4144893;28;20038;-67
2023/12/26 06:29:56;;;;;;;11.55;2.80;;;;;;;10.44;65.32;100442.59;4145672;28;20044;-67
2023/12/26 06:32:00;;;;;;;10.38;2.00;;;;;;;10.48;64.47;100442.72;4143470;28;20050;-67
2023/12/26 06:34:04;;;;;;;7.80;2.05;;;;;;;10.42;65.63;100444.31;4143813;28;20112;-67
2023/12/26 06:36:07;;;;;;;15.35;2.80;;;;;;;10.42;65.29;100463.38;4144147;28;20041;-67
2023/12/26 06:38:12;;;;;;;8.50;2.85;;;;;;;10.44;64.70;100460.81;4144541;28;20141;-67
2023/12/26 06:40:16;;;;;;;10.50;1.95;;;;;;;10.35;64.84;100458.94;4144479;28;20046;-68
2023/12/26 06:42:19;;;;;;;13.95;2.33;;;;;;;10.32;65.11;100469.25;4145306;28;20042;-69
2023/12/26 06:44:22;;;;;;;13.75;2.40;;;;;;;10.35;65.82;100461.53;4155482;28;20516;-68
2023/12/26 06:46:25;;;;;;;12.63;2.10;;;;;;;10.46;64.93;100478.19;4153945;28;20038;-68
2023/12/26 06:48:31;;;;;;;11.25;2.55;;;;;;;10.39;65.00;100472.88;4138225;28;20046;-69
2023/12/26 06:50:34;;;;;;;11.68;3.28;;;;;;;10.41;65.00;100464.25;4147009;28;20136;-69
2023/12/26 06:52:38;;;;;;;9.27;2.58;;;;;;;10.39;65.52;100463.34;4145970;28;20046;-67
2023/12/26 06:54:40;;;;;;;5.20;1.98;;;;;;;10.45;65.87;100466.06;4145809;28;20121;-68
2023/12/26 06:56:43;;;;;;;10.05;2.33;;;;;;;10.41;65.58;100455.56;4122298;28;20089;-67
2023/12/26 06:58:46;;;;;;;17.20;2.88;;;;;;;10.40;65.32;100462.50;4142464;28;20668;-67
2023/12/26 07:00:49;;;;;;;9.10;2.45;;;;;;;10.43;65.96;100459.94;4141452;28;20038;-67
2023/12/26 07:02:53;;;;;;;10.13;2.33;;;;;;;10.38;65.73;100466.81;4147090;28;20033;-68
2023/12/26 07:04:59;;;;;;;14.30;2.47;;;;;;;10.41;65.39;100469.47;4137018;28;20040;-68
2023/12/26 07:07:02;;;;;;;13.05;2.60;;;;;;;10.41;65.56;100474.66;4144982;28;20124;-68
2023/12/26 07:09:05;;;;;;;15.80;4.50;;;;;;;10.32;66.31;100479.66;4145845;28;20048;-68
2023/12/26 07:11:08;;;;;;;5.22;1.77;;;;;;;10.28;66.53;100480.47;4146431;28;20057;-68
2023/12/26 07:13:10;;;;;;;11.82;2.40;;;;;;;10.36;66.00;100488.44;4143441;28;20037;-68
2023/12/26 07:15:13;;;;;;;8.40;2.67;;;;;;;10.46;65.79;100496.38;4142563;28;20121;-68
2023/12/26 07:17:16;;;;;;;5.25;1.65;;;;;;;10.50;65.40;100499.91;4145892;28;20045;-68
2023/12/26 07:19:19;;;;;;;8.50;2.03;;;;;;;10.45;65.54;100506.75;4146899;28;20061;-67
2023/12/26 07:21:23;;;;;;;11.48;2.42;;;;;;;10.35;65.25;100505.72;4145716;28;20048;-68
2023/12/26 07:23:26;;;;;;;7.63;2.22;;;;;;;10.32;66.31;100500.44;4146702;28;20061;-68
2023/12/26 07:25:31;;;;;;;9.88;2.13;;;;;;;10.27;66.30;100500.38;4145714;28;20042;-68
2023/12/26 07:27:34;;;;;;;10.07;2.05;;;;;;;10.32;66.37;100505.63;4130965;28;20104;-68
2023/12/26 07:29:37;;;;;;;6.05;1.83;;;;;;;10.33;66.22;100499.59;4138611;28;20054;-68
2023/12/26 07:31:40;;;;;;;10.75;2.10;;;;;;;10.25;66.92;100506.38;4159184;28;20402;-68
2023/12/26 07:33:43;;;;;;;8.73;2.63;;;;;;;10.32;66.41;100513.44;4140072;28;20046;-68
2023/12/26 07:35:46;;;;;;;7.63;1.65;;;;;;;10.37;66.20;100522.22;4140934;28;20049;-68
2023/12/26 07:37:51;;;;;;;10.23;2.40;;;;;;;10.31;66.97;100519.50;4140449;28;20026;-68
2023/12/26 07:39:54;;;;;;;7.93;2.05;;;;;;;10.22;66.52;100527.13;4145344;28;20436;-69
2023/12/26 07:41:57;;;;;;;12.35;1.98;;;;;;;10.17;67.85;100539.19;4145434;28;20037;-69
2023/12/26 07:44:05;;;;;;;4.85;1.45;;;;;;;10.20;67.13;100547.88;4142678;28;20052;-68
2023/12/26 07:46:07;;;;;;;6.18;1.92;;;;;;;10.25;67.80;100547.97;4147013;28;20053;-68
2023/12/26 07:48:11;;;;;;;12.40;2.70;;;;;;;10.26;67.54;100549.72;4146857;28;20471;-69
2023/12/26 07:50:15;;;;;;;7.82;2.17;;;;;;;10.14;68.12;100551.25;4144337;28;20038;-68
2023/12/26 07:52:18;;;;;;;8.65;2.03;;;;;;;10.19;67.69;100548.75;4145197;28;20494;-68
2023/12/26 07:54:22;;;;;;;8.65;1.85;;;;;;;10.19;67.63;100566.03;4145465;28;20055;-68
2023/12/26 07:56:25;;;;;;;7.05;1.73;;;;;;;10.11;67.86;100590.16;4146540;28;20045;-68
2023/12/26 07:58:28;;;;;;;6.95;1.88;;;;;;;10.00;68.24;100588.22;4146593;28;20045;-68
2023/12/26 08:00:31;;;;;;;6.88;1.65;;;;;;;10.03;69.02;100583.97;4144037;28;20042;-69
2023/12/26 08:02:34;;;;;;;7.35;2.15;;;;;;;9.99;68.64;100595.16;4143427;28;20038;-68
2023/12/26 08:04:37;;;;;;;4.78;1.42;;;;;;;10.01;68.54;100595.19;4139400;28;20518;-68
2023/12/26 08:06:40;;;;;;;7.43;2.08;;;;;;;9.98;69.07;100596.00;4145708;28;20128;-68
2023/12/26 08:08:43;;;;;;;9.98;2.50;;;;;;;9.90;69.66;100608.84;4144917;28;20034;-68
2023/12/26 08:10:48;;;;;;;4.63;1.40;;;;;;;9.88;69.90;100596.66;4144797;28;20033;-68
2023/12/26 08:12:51;;;;;;;11.27;2.33;;;;;;;10.00;69.52;100606.41;4144684;28;20124;-68
2023/12/26 08:14:53;;;;;;;4.65;1.52;;;;;;;9.97;69.58;100615.00;4141457;28;20409;-68
2023/12/26 08:16:57;;;;;;;6.75;2.10;;;;;;;9.94;69.70;100617.53;4136468;28;20124;-68
2023/12/26 08:19:01;;;;;;;5.28;1.63;;;;;;;9.93;69.63;100619.28;4145321;28;20041;-69
2023/12/26 08:21:05;;;;;;;8.98;1.80;;;;;;;9.90;69.30;100620.94;4142562;28;20045;-67
2023/12/26 08:23:08;;;;;;;4.38;1.50;;;;;;;9.96;69.62;100613.28;4144989;28;20037;-65
2023/12/26 08:25:11;;;;;;;4.78;1.65;;;;;;;9.97;69.60;100617.59;4142491;28;20042;-61
2023/12/26 08:27:16;;;;;;;9.35;1.73;;;;;;;9.98;69.16;100616.75;4146486;28;20118;-66
2023/12/26 08:29:19;;;;;;;;;;;;;;;9.90;69.76;100613.13;4140954;28;20045;-64
2023/12/26 08:31:22;;;;;;;6.47;1.33;;;;;;;9.89;70.47;100614.88;4138809;28;19932;-64
2023/12/26 08:33:25;;;;;;;7.05;1.80;;;;;;;9.89;70.59;100612.28;4137074;28;20043;-64
2023/12/26 08:35:27;;;;;;;3.47;1.40;;;;;;;9.83;70.14;100611.25;4141790;28;20073;-63
2023/12/26 08:37:30;;;;;;;3.38;1.30;;;;;;;9.80;70.17;100625.09;4135603;28;20042;-63
2023/12/26 08:39:33;;;;;;;5.90;1.67;;;;;;;9.79;71.08;100620.72;4143084;28;20104;-64
2023/12/26 08:41:36;;;;;;;2.92;1.08;;;;;;;9.83;71.14;100632.03;4144897;28;20060;-65
2023/12/26 08:43:41;;;;;;;4.35;1.55;;;;;;;9.94;70.60;100635.72;4141901;28;20186;-65
2023/12/26 08:45:44;;;;;;;7.18;1.90;;;;;;;9.94;70.38;100627.94;4140706;28;20111;-65
2023/12/26 08:47:48;;;;;;;3.83;1.25;;;;;;;9.95;70.26;100629.69;4140835;28;20034;-65
2023/12/26 08:49:51;;;;;;;5.95;1.50;;;;;;;9.99;70.82;100626.31;4132406;28;20034;-63
2023/12/26 08:51:54;;;;;;;5.53;1.83;;;;;;;10.17;69.61;100622.31;4140203;28;20034;-63
2023/12/26 08:53:57;;;;;;;6.05;1.85;;;;;;;10.11;69.52;100623.94;4141565;28;20073;-63
2023/12/26 08:56:03;;;;;;;3.28;1.20;;;;;;;9.99;70.38;100644.50;4145068;28;20503;-63
2023/12/26 08:58:06;;;;;;;3.92;1.40;;;;;;;10.04;70.07;100648.03;4142471;28;20060;-64
2023/12/26 09:00:14;;;;;;;2.22;1.30;;;;;;;10.01;70.46;100648.00;4138575;28;20050;-62
2023/12/26 09:02:17;;;;;;;3.22;1.20;;;;;;;9.97;70.15;100646.16;4144050;28;20046;-63
2023/12/26 09:04:19;;;;;;;4.95;1.65;;;;;;;10.00;70.07;100660.94;4144050;28;20128;-63
2023/12/26 09:06:22;;;;;;;4.72;1.23;;;;;;;9.98;70.10;100665.25;4144962;28;20535;-63
2023/12/26 09:08:25;;;;;;;4.75;1.52;;;;;;;10.00;70.18;100667.00;4149909;28;20052;-63
2023/12/26 09:10:28;;;;;;;3.33;1.50;;;;;;;9.96;70.42;100660.88;4136126;28;20048;-63
2023/12/26 09:12:31;;;;;;;4.20;1.40;;;;;;;10.08;70.57;100670.63;4144960;28;20080;-63
2023/12/26 09:14:36;;;;;;;3.05;1.58;;;;;;;9.98;69.91;100681.69;4144474;28;20359;-69
2023/12/26 09:16:40;;;;;;;2.90;1.20;;;;;;;9.88;70.91;100678.03;4136965;28;20500;-65
2023/12/26 09:18:43;;;;;;;4.45;1.35;;;;;;;9.89;71.29;100673.72;4145162;28;20038;-65
2023/12/26 09:20:46;;;;;;;3.40;1.30;;;;;;;9.96;70.59;100673.00;4144737;28;20459;-62
2023/12/26 09:22:49;;;;;;;4.63;1.20;;;;;;;9.95;70.90;100681.63;4141828;28;20069;-65
2023/12/26 09:24:52;;;;;;;5.93;1.50;;;;;;;9.98;70.40;100699.88;4145231;28;20124;-66
2023/12/26 09:26:55;;;;;;;2.65;1.33;;;;;;;9.94;70.50;100703.25;4143948;28;20404;-65
2023/12/26 09:28:58;;;;;;;2.63;1.20;;;;;;;9.94;71.01;100698.06;4142997;28;20030;-65
2023/12/26 09:31:01;;;;;;;1.33;0.95;;;;;;;10.00;71.01;100712.88;4143394;28;20073;-65
2023/12/26 09:33:06;;;;;;;3.28;1.35;;;;;;;10.00;70.82;100702.50;4142544;28;20055;-65
2023/12/26 09:35:09;;;;;;;3.22;1.35;;;;;;;10.02;71.07;100712.09;4138497;28;20055;-65